createdAt,value
2023-10-04T00:01:55.973Z,100.00
2023-10-04T00:05:57.791Z,100.00
2023-10-04T00:10:05.231Z,100.00
2023-10-04T00:14:08.312Z,100.00
2023-10-04T00:18:13.014Z,100.00
2023-10-04T00:22:15.122Z,100.00
2023-10-04T00:26:17.307Z,100.00
2023-10-04T00:30:20.844Z,100.00
2023-10-04T00:34:23.243Z,100.00
2023-10-04T00:38:27.814Z,100.00
2023-10-04T00:42:29.768Z,100.00
2023-10-04T00:46:35.237Z,100.00
2023-10-04T00:50:37.987Z,100.00
2023-10-04T00:54:41.452Z,100.00
2023-10-04T00:58:44.742Z,100.00
2023-10-04T01:02:47.344Z,100.00
2023-10-04T01:06:49.893Z,100.00
2023-10-04T01:10:55.698Z,100.00
2023-10-04T01:15:12.048Z,100.00
2023-10-04T01:19:17.015Z,100.00
2023-10-04T01:23:19.885Z,100.00
2023-10-04T01:27:21.677Z,100.00
2023-10-04T01:31:23.835Z,100.00
2023-10-04T01:35:26.086Z,100.00
2023-10-04T01:39:31.523Z,100.00
2023-10-04T01:43:33.805Z,100.00
2023-10-04T01:47:35.795Z,100.00
2023-10-04T01:51:37.741Z,100.00
2023-10-04T01:55:41.191Z,100.00
2023-10-04T01:59:43.038Z,100.00
2023-10-04T02:03:45.818Z,100.00
2023-10-04T02:07:48.239Z,100.00
2023-10-04T02:11:50.109Z,100.00
2023-10-04T02:15:53.109Z,100.00
2023-10-04T02:19:55.196Z,100.00
2023-10-04T02:23:57.684Z,100.00
2023-10-04T02:28:07.443Z,100.00
2023-10-04T02:32:10.548Z,100.00
2023-10-04T02:36:12.762Z,100.00
2023-10-04T02:40:18.883Z,100.00
2023-10-04T02:44:20.861Z,100.00
2023-10-04T02:48:24.586Z,100.00
2023-10-04T02:52:28.551Z,100.00
2023-10-04T02:56:31.025Z,100.00
2023-10-04T03:00:34.379Z,100.00
2023-10-04T03:04:36.813Z,100.00
2023-10-04T03:08:39.109Z,100.00
2023-10-04T03:12:42.462Z,100.00
2023-10-04T03:16:44.833Z,100.00
2023-10-04T03:20:51.582Z,100.00
2023-10-04T03:24:54.856Z,100.00
2023-10-04T03:28:57.763Z,100.00
2023-10-04T03:33:04.036Z,100.00
2023-10-04T03:37:15.215Z,100.00
2023-10-04T03:41:19.666Z,100.00
2023-10-04T03:45:24.205Z,100.00
2023-10-04T03:49:28.131Z,100.00
2023-10-04T03:53:30.571Z,100.00
2023-10-04T03:57:34.922Z,100.00
2023-10-04T04:01:38.857Z,100.00
2023-10-04T04:05:43.457Z,100.00
2023-10-04T04:09:45.551Z,100.00
2023-10-04T04:13:47.554Z,100.00
2023-10-04T04:17:49.983Z,100.00
2023-10-04T04:21:52.896Z,100.00
2023-10-04T04:25:54.941Z,100.00
2023-10-04T04:30:04.808Z,100.00
2023-10-04T04:34:10.560Z,100.00
2023-10-04T04:38:26.610Z,100.00
2023-10-04T04:42:36.585Z,100.00
2023-10-04T04:46:41.410Z,100.00
2023-10-04T04:50:44.014Z,100.00
2023-10-04T04:54:45.849Z,100.00
2023-10-04T04:58:49.285Z,100.00
2023-10-04T05:02:52.393Z,100.00
2023-10-04T05:06:54.494Z,100.00
2023-10-04T05:11:00.633Z,100.00
2023-10-04T05:15:02.967Z,100.00
2023-10-04T05:19:05.800Z,100.00
2023-10-04T05:23:10.267Z,100.00
2023-10-04T05:27:12.350Z,100.00
2023-10-04T05:31:13.990Z,100.00
2023-10-04T05:35:16.299Z,100.00
2023-10-04T05:39:18.887Z,100.00
2023-10-04T05:43:20.934Z,100.00
2023-10-04T05:47:24.144Z,100.00
2023-10-04T05:51:26.599Z,100.00
2023-10-04T05:55:28.879Z,100.00
2023-10-04T05:59:33.172Z,100.00
2023-10-04T06:03:36.358Z,100.00
2023-10-04T06:07:38.572Z,100.00
2023-10-04T06:11:40.697Z,100.00
2023-10-04T06:15:50.868Z,100.00
2023-10-04T06:19:55.566Z,100.00
2023-10-04T06:23:57.647Z,100.00
2023-10-04T06:28:01.042Z,100.00
2023-10-04T06:32:02.753Z,100.00
2023-10-04T06:36:04.923Z,100.00
2023-10-04T06:40:15.417Z,100.00
2023-10-04T06:44:17.175Z,100.00
2023-10-04T06:48:19.328Z,100.00
2023-10-04T06:52:21.752Z,100.00
2023-10-04T06:56:25.425Z,100.00
2023-10-04T07:00:32.629Z,100.00
2023-10-04T07:04:34.921Z,100.00
2023-10-04T07:08:37.107Z,100.00
2023-10-04T07:12:39.757Z,100.00
2023-10-04T07:16:41.627Z,100.00
2023-10-04T07:20:43.760Z,100.00
2023-10-04T07:24:45.778Z,100.00
2023-10-04T07:28:47.620Z,100.00
2023-10-04T07:32:49.920Z,100.00
2023-10-04T07:36:52.649Z,100.00
2023-10-04T07:40:54.805Z,100.00
2023-10-04T07:44:57.052Z,100.00
2023-10-04T07:49:01.601Z,100.00
2023-10-04T07:53:06.542Z,100.00
2023-10-04T07:57:11.082Z,100.00
2023-10-04T08:01:18.323Z,100.00
2023-10-04T08:05:26.661Z,100.00
2023-10-04T08:09:29.005Z,100.00
2023-10-04T08:13:32.058Z,98.91
2023-10-04T08:17:34.552Z,92.96
2023-10-04T08:21:36.394Z,89.64
2023-10-04T08:25:38.439Z,87.57
2023-10-04T08:29:40.449Z,98.68
2023-10-04T08:33:45.109Z,100.00
2023-10-04T08:37:49.827Z,100.00
2023-10-04T08:41:51.767Z,100.00
2023-10-04T08:45:56.045Z,100.00
2023-10-04T08:50:01.867Z,100.00
2023-10-04T08:54:22.906Z,100.00
2023-10-04T08:58:25.972Z,100.00
2023-10-04T09:02:27.881Z,100.00
2023-10-04T09:06:29.957Z,100.00
2023-10-04T09:10:35.341Z,100.00
2023-10-04T09:14:41.239Z,100.00
2023-10-04T09:18:43.762Z,100.00
2023-10-04T09:22:45.582Z,100.00
2023-10-04T09:26:50.467Z,100.00
2023-10-04T09:31:08.761Z,100.00
2023-10-04T09:35:11.408Z,100.00
2023-10-04T09:39:15.183Z,100.00
2023-10-04T09:43:16.938Z,100.00
2023-10-04T09:47:19.106Z,98.93
2023-10-04T09:51:22.227Z,100.00
2023-10-04T09:55:26.979Z,96.96
2023-10-04T09:59:29.801Z,97.41
2023-10-04T10:03:48.725Z,95.76
2023-10-04T10:07:52.242Z,99.04
2023-10-04T10:11:55.040Z,93.40
2023-10-04T10:15:57.851Z,90.83
2023-10-04T10:20:00.866Z,92.22
2023-10-04T10:24:05.722Z,100.00
2023-10-04T10:28:21.402Z,97.58
2023-10-04T10:32:24.730Z,100.00
2023-10-04T10:36:32.935Z,93.46
2023-10-04T10:40:36.573Z,91.53
2023-10-04T10:44:40.385Z,91.93
2023-10-04T10:48:42.751Z,92.56
2023-10-04T10:52:44.717Z,100.00
2023-10-04T10:56:46.707Z,91.55
2023-10-04T11:00:48.650Z,95.84
2023-10-04T11:04:52.448Z,97.81
2023-10-04T11:08:56.805Z,100.00
2023-10-04T11:13:01.046Z,100.00
2023-10-04T11:17:05.301Z,93.92
2023-10-04T11:21:07.864Z,88.24
2023-10-04T11:25:10.197Z,100.00
2023-10-04T11:29:12.173Z,98.57
2023-10-04T11:33:14.913Z,100.00
2023-10-04T11:37:17.831Z,100.00
2023-10-04T11:41:23.167Z,100.00
2023-10-04T11:45:27.842Z,97.76
2023-10-04T11:49:33.617Z,93.12
2023-10-04T11:53:39.893Z,92.78
2023-10-04T11:57:42.599Z,95.21
2023-10-04T12:01:48.126Z,100.00
2023-10-04T12:05:50.253Z,99.06
2023-10-04T12:09:52.923Z,85.19
2023-10-04T12:13:56.645Z,92.69
2023-10-04T12:17:58.978Z,85.31
2023-10-04T12:22:09.909Z,87.35
2023-10-04T12:26:12.116Z,91.01
2023-10-04T12:30:19.032Z,87.36
2023-10-04T12:34:24.112Z,90.32
2023-10-04T12:38:26.360Z,88.47
2023-10-04T12:42:28.636Z,95.55
2023-10-04T12:46:31.131Z,90.45
2023-10-04T12:50:36.185Z,94.60
2023-10-04T12:54:38.833Z,88.71
2023-10-04T12:58:41.264Z,83.63
2023-10-04T13:02:46.044Z,82.28
2023-10-04T13:06:48.278Z,97.47
2023-10-04T13:10:50.403Z,90.43
2023-10-04T13:14:56.625Z,92.24
2023-10-04T13:18:59.047Z,92.28
2023-10-04T13:23:01.865Z,86.75
2023-10-04T13:27:05.160Z,89.05
2023-10-04T13:31:07.966Z,84.25
2023-10-04T13:35:10.131Z,92.09
2023-10-04T13:39:12.195Z,79.58
2023-10-04T13:43:14.936Z,89.38
2023-10-04T13:47:17.472Z,80.31
2023-10-04T13:51:23.463Z,76.95
2023-10-04T13:55:27.093Z,78.98
2023-10-04T13:59:30.369Z,78.69
2023-10-04T14:03:36.804Z,81.14
2023-10-04T14:07:40.357Z,77.21
2023-10-04T14:11:42.390Z,85.17
2023-10-04T14:15:44.435Z,79.36
2023-10-04T14:19:48.426Z,87.25
2023-10-04T14:23:51.651Z,82.22
2023-10-04T14:27:54.821Z,81.75
2023-10-04T14:31:58.226Z,79.21
2023-10-04T14:36:00.598Z,79.00
2023-10-04T14:40:05.219Z,77.46
2023-10-04T14:44:07.364Z,80.59
2023-10-04T14:48:09.430Z,85.37
2023-10-04T14:52:11.761Z,87.46
2023-10-04T14:56:13.976Z,84.14
2023-10-04T15:00:21.429Z,81.07
2023-10-04T15:04:25.026Z,84.26
2023-10-04T15:08:27.925Z,90.79
2023-10-04T15:12:33.250Z,89.26
2023-10-04T15:16:35.447Z,95.21
2023-10-04T15:20:37.646Z,90.49
2023-10-04T15:24:41.032Z,92.85
2023-10-04T15:28:45.948Z,85.61
2023-10-04T15:32:52.938Z,89.05
2023-10-04T15:36:55.184Z,87.84
2023-10-04T15:40:57.248Z,99.94
2023-10-04T15:44:59.426Z,91.39
2023-10-04T15:49:02.021Z,89.56
2023-10-04T15:56:53.531Z,88.76
2023-10-04T16:01:36.564Z,100.00
2023-10-04T16:08:23.669Z,99.50
2023-10-04T16:14:32.504Z,87.08
2023-10-04T16:22:09.287Z,94.97
2023-10-04T16:27:35.409Z,97.83
2023-10-04T16:31:38.603Z,85.49
2023-10-04T16:35:40.880Z,92.67
2023-10-04T16:39:43.828Z,94.90
2023-10-04T16:43:45.861Z,100.00
2023-10-04T16:47:49.279Z,98.60
2023-10-04T16:51:52.022Z,95.76
2023-10-04T16:55:54.108Z,100.00
2023-10-04T16:59:56.210Z,98.23
2023-10-04T17:08:02.322Z,93.92
2023-10-04T17:12:05.541Z,100.00
2023-10-04T17:16:07.788Z,100.00
2023-10-04T17:20:10.183Z,100.00
2023-10-04T17:24:12.341Z,100.00
2023-10-04T17:28:16.082Z,100.00
2023-10-04T17:32:19.295Z,100.00
2023-10-04T17:36:22.047Z,100.00
2023-10-04T17:40:24.138Z,100.00
2023-10-04T17:44:29.009Z,100.00
2023-10-04T17:48:31.067Z,100.00
2023-10-04T17:52:33.045Z,100.00
2023-10-04T17:56:35.365Z,100.00
2023-10-04T18:00:37.714Z,100.00
2023-10-04T18:04:39.984Z,100.00
2023-10-04T18:08:41.984Z,100.00
2023-10-04T18:12:45.709Z,100.00
2023-10-04T18:16:47.796Z,100.00
2023-10-04T18:20:50.049Z,100.00
2023-10-04T18:24:52.145Z,100.00
2023-10-04T18:28:55.244Z,100.00
2023-10-04T18:32:57.771Z,100.00
2023-10-04T18:37:01.013Z,100.00
2023-10-04T18:41:03.175Z,100.00
2023-10-04T18:45:07.536Z,100.00
2023-10-04T18:49:10.779Z,100.00
2023-10-04T18:53:12.986Z,100.00
2023-10-04T18:57:15.301Z,100.00
2023-10-04T19:01:17.808Z,100.00
2023-10-04T19:05:19.924Z,100.00
2023-10-04T19:09:22.236Z,100.00
2023-10-04T19:13:24.421Z,100.00
2023-10-04T19:17:26.749Z,100.00
2023-10-04T19:21:28.934Z,100.00
2023-10-04T19:25:31.128Z,100.00
2023-10-04T19:29:33.226Z,100.00
2023-10-04T19:33:36.244Z,100.00
2023-10-04T19:37:38.306Z,100.00
2023-10-04T19:41:40.928Z,100.00
2023-10-04T19:45:44.705Z,100.00
2023-10-04T19:49:47.274Z,100.00
2023-10-04T19:53:52.556Z,100.00
2023-10-04T19:57:55.074Z,100.00
2023-10-04T20:01:57.213Z,100.00
2023-10-04T20:06:01.702Z,100.00
2023-10-04T20:10:07.363Z,100.00
2023-10-04T20:14:09.874Z,100.00
2023-10-04T20:18:17.241Z,100.00
2023-10-04T20:22:20.362Z,100.00
2023-10-04T20:26:23.834Z,100.00
2023-10-04T20:30:28.809Z,100.00
2023-10-04T20:34:30.903Z,100.00
2023-10-04T20:38:33.045Z,100.00
2023-10-04T20:42:36.244Z,100.00
2023-10-04T20:46:38.612Z,100.00
2023-10-04T20:50:42.453Z,100.00
2023-10-04T20:54:44.655Z,100.00
2023-10-04T20:58:46.809Z,100.00
2023-10-04T21:02:49.270Z,100.00
2023-10-04T21:06:51.490Z,100.00
2023-10-04T21:10:54.104Z,100.00
2023-10-04T21:14:57.056Z,100.00
2023-10-04T21:18:59.127Z,100.00
2023-10-04T21:23:01.302Z,100.00
2023-10-04T21:27:03.770Z,100.00
2023-10-04T21:31:11.800Z,100.00
2023-10-04T21:35:21.856Z,100.00
2023-10-04T21:39:26.722Z,100.00
2023-10-04T21:43:30.688Z,100.00
2023-10-04T21:47:39.895Z,100.00
2023-10-04T21:52:05.773Z,100.00
2023-10-04T21:56:07.973Z,100.00
2023-10-04T22:00:23.303Z,100.00
2023-10-04T22:04:26.887Z,100.00
2023-10-04T22:08:31.170Z,100.00
2023-10-04T22:18:59.003Z,100.00
2023-10-04T22:23:01.054Z,100.00
2023-10-04T22:27:03.233Z,100.00
2023-10-04T22:31:05.732Z,100.00
2023-10-04T22:35:11.520Z,100.00
2023-10-04T22:39:16.006Z,100.00
2023-10-04T22:43:21.798Z,100.00
2023-10-04T22:47:24.420Z,100.00
2023-10-04T22:51:26.758Z,100.00
2023-10-04T22:55:29.035Z,100.00
2023-10-04T22:59:31.105Z,100.00
2023-10-04T23:03:42.304Z,100.00
2023-10-04T23:07:52.934Z,100.00
2023-10-04T23:11:54.983Z,100.00
2023-10-04T23:16:00.483Z,100.00
2023-10-04T23:20:02.810Z,100.00
2023-10-04T23:24:17.222Z,100.00
2023-10-04T23:28:19.372Z,100.00
2023-10-04T23:32:21.452Z,100.00
2023-10-04T23:36:26.439Z,100.00
2023-10-04T23:40:31.080Z,100.00
2023-10-04T23:44:32.766Z,100.00
2023-10-04T23:48:35.224Z,100.00
2023-10-04T23:52:36.949Z,100.00
2023-10-04T23:57:01.411Z,100.00
